Time;durP1;ratioP1;P1;durP2;ratioP2;P2;SDS_P1;SDS_P2;PMS_P1;PMS_P2;Temp;Humidity;BMP_temperature;BMP_pressure;BME280_temperature;BME280_humidity;BME280_pressure;Samples;Min_cycle;Max_cycle;Signal;HPM_P1;HPM_P2
2023/08/29 00:01:41;;;;;;;0.40;0.40;;;25.70;61.30;;;26.00;46.30;93887.47;5008646;28;20597;-30
2023/08/29 00:04:08;;;;;;;0.30;0.30;;;25.70;61.30;;;25.99;46.21;93904.75;4993190;28;20206;-31
2023/08/29 00:06:35;;;;;;;0.30;0.30;;;25.70;61.30;;;25.99;46.22;93908.19;4993400;28;20202;-30
2023/08/29 00:09:03;;;;;;;0.30;0.30;;;25.70;61.30;;;25.99;46.42;93910.09;4993254;28;20210;-30
2023/08/29 00:11:31;;;;;;;0.30;0.30;;;25.70;61.20;;;25.99;46.29;93880.56;4993086;28;20627;-31
2023/08/29 00:13:59;;;;;;;0.40;0.40;;;25.70;61.30;;;25.99;46.11;93851.00;4993039;28;20568;-31
2023/08/29 00:16:26;;;;;;;0.40;0.40;;;25.70;61.30;;;25.99;45.89;93838.34;4992838;28;20238;-33
2023/08/29 00:18:53;;;;;;;0.30;0.30;;;25.70;61.30;;;25.98;46.23;93836.75;5076502;28;20202;-32
2023/08/29 00:21:20;;;;;;;0.30;0.30;;;25.70;61.30;;;25.98;46.34;93846.72;4992881;28;20298;-32
2023/08/29 00:23:48;;;;;;;0.32;0.32;;;25.70;61.30;;;25.99;46.43;93835.66;5008232;28;20198;-30
2023/08/29 00:26:15;;;;;;;0.40;0.40;;;25.70;61.30;;;25.99;46.25;93832.19;4993111;28;20199;-31
2023/08/29 00:28:44;;;;;;;0.40;0.40;;;25.70;61.30;;;25.97;46.16;93816.38;5008022;28;20213;-32
2023/08/29 00:31:11;;;;;;;0.30;0.30;;;25.70;61.30;;;25.97;46.13;93819.06;4992829;28;20268;-31
2023/08/29 00:33:38;;;;;;;0.52;0.52;;;25.70;61.30;;;25.98;46.66;93811.81;5076772;28;20656;-33
2023/08/29 00:36:06;;;;;;;0.30;0.30;;;25.70;61.30;;;25.98;46.49;93811.81;5008097;28;20710;-30
2023/08/29 00:38:33;;;;;;;0.20;0.20;;;25.70;61.30;;;25.96;46.21;93787.13;4991829;28;20211;-30
2023/08/29 00:41:00;;;;;;;0.40;0.40;;;25.70;61.30;;;25.96;46.24;93766.41;5059321;28;20280;-30
2023/08/29 00:43:29;;;;;;;0.40;0.40;;;25.70;61.30;;;25.96;46.36;93768.34;5008041;28;20206;-31
2023/08/29 00:45:57;;;;;;;0.38;0.38;;;25.70;61.30;;;25.94;45.91;93774.03;4992653;28;20201;-30
2023/08/29 00:48:25;;;;;;;0.30;0.30;;;25.70;61.20;;;25.93;46.01;93787.75;4992461;28;20518;-32
2023/08/29 00:50:54;;;;;;;0.30;0.30;;;25.70;61.10;;;25.91;46.37;93788.09;4992837;28;20196;-30
2023/08/29 00:53:24;;;;;;;0.30;0.30;;;25.60;61.10;;;25.88;45.64;93781.44;5007882;28;20199;-31
2023/08/29 00:55:52;;;;;;;0.30;0.30;;;25.60;61.90;;;25.87;45.78;93777.19;4992445;28;20187;-31
2023/08/29 00:58:19;;;;;;;0.35;0.35;;;25.60;61.00;;;25.86;45.78;93780.97;5076119;28;20246;-32
2023/08/29 01:00:48;;;;;;;0.30;0.30;;;25.60;61.00;;;25.86;45.76;93777.50;5007721;28;20244;-34
2023/08/29 01:03:15;;;;;;;0.40;0.40;;;25.60;61.00;;;25.84;45.91;93759.03;4991488;28;20211;-31
2023/08/29 01:05:42;;;;;;;0.30;0.30;;;25.50;61.00;;;25.83;45.91;93767.38;4995333;28;20198;-30
2023/08/29 01:08:12;;;;;;;0.30;0.30;;;25.50;60.90;;;25.81;46.17;93772.28;5061918;28;20200;-30
2023/08/29 01:11:14;;;;;;;0.40;0.40;;;25.50;60.90;;;25.77;46.00;93774.81;4994741;28;20202;-32
2023/08/29 01:14:22;;;;;;;0.35;0.35;;;25.50;60.90;;;25.72;45.98;93788.41;5011245;28;20184;-34
2023/08/29 01:17:01;;;;;;;0.40;0.40;;;25.50;61.00;;;25.70;45.80;93798.66;4997001;28;20242;-31
2023/08/29 01:19:33;;;;;;;0.40;0.40;;;25.50;60.90;;;25.69;45.95;93805.91;5074381;28;20189;-30
2023/08/29 01:22:24;;;;;;;0.40;0.40;;;25.40;60.80;;;25.67;45.90;93789.34;4996149;28;20642;-30
2023/08/29 01:25:19;;;;;;;0.30;0.30;;;25.40;61.00;;;25.64;46.13;93779.22;4994685;28;20262;-33
2023/08/29 01:27:48;;;;;;;0.30;0.30;;;25.40;62.00;;;25.64;45.86;93779.22;5058286;28;20179;-32
2023/08/29 01:30:16;;;;;;;0.35;0.35;;;25.40;61.10;;;25.67;45.96;93775.13;4995469;28;20290;-32
2023/08/29 01:32:44;;;;;;;0.30;0.30;;;25.40;61.10;;;25.67;45.85;93756.31;4995482;28;20224;-30
2023/08/29 01:35:15;;;;;;;0.30;0.30;;;25.30;61.00;;;25.66;46.32;93768.97;4995439;28;20193;-31
2023/08/29 01:37:42;;;;;;;0.32;0.32;;;25.30;61.10;;;25.67;46.05;93762.50;4995206;28;20325;-31
2023/08/29 01:40:10;;;;;;;0.40;0.40;;;25.40;61.20;;;25.68;46.00;93749.84;5010781;28;20231;-31
2023/08/29 01:42:37;;;;;;;0.40;0.40;;;25.40;61.10;;;25.67;46.02;93735.66;5079138;28;20215;-32
2023/08/29 01:45:05;;;;;;;0.38;0.38;;;25.30;61.20;;;25.68;45.44;93750.66;4994342;28;20397;-32
2023/08/29 01:47:34;;;;;;;0.30;0.30;;;25.40;61.20;;;25.67;46.20;93754.44;4995536;28;20205;-32
2023/08/29 01:50:04;;;;;;;0.30;0.30;;;25.40;61.10;;;25.66;45.73;93752.84;4995069;28;20587;-33
2023/08/29 01:52:32;;;;;;;0.50;0.50;;;25.30;61.10;;;25.67;46.14;93756.31;4995176;28;20205;-31
2023/08/29 01:54:59;;;;;;;0.40;0.40;;;25.30;61.10;;;25.66;46.07;93768.97;5079375;28;20215;-31
2023/08/29 01:57:28;;;;;;;0.40;0.40;;;25.30;61.10;;;25.66;46.25;93763.59;5079680;28;20209;-33
2023/08/29 01:59:57;;;;;;;0.40;0.40;;;25.40;61.10;;;25.66;46.33;93763.59;5079153;28;20219;-30
2023/08/29 02:02:24;;;;;;;0.30;0.30;;;25.40;61.30;;;25.65;45.94;93745.13;5011170;28;20302;-33
2023/08/29 02:04:52;;;;;;;0.30;0.30;;;25.30;61.20;;;25.65;46.26;93734.38;4995270;28;20284;-31
2023/08/29 02:07:19;;;;;;;0.40;0.40;;;25.40;61.20;;;25.65;46.22;93731.69;4995054;28;20197;-31
2023/08/29 02:09:46;;;;;;;0.40;0.40;;;25.30;61.10;;;25.64;46.18;93741.63;5010090;28;20648;-30
2023/08/29 02:12:13;;;;;;;0.47;0.47;;;25.40;61.20;;;25.63;46.09;93752.69;4994916;28;20659;-31
2023/08/29 02:14:41;;;;;;;0.40;0.40;;;25.30;61.20;;;25.64;46.30;93773.84;4995147;28;20196;-32
2023/08/29 02:17:08;;;;;;;0.38;0.38;;;25.30;61.10;;;25.64;46.06;93787.28;5008876;28;20741;-31
2023/08/29 02:19:35;;;;;;;0.30;0.30;;;25.30;61.00;;;25.64;46.18;93797.25;4993651;28;20729;-32
2023/08/29 02:22:02;;;;;;;0.35;0.35;;;25.40;61.10;;;25.63;46.00;93803.72;4994680;28;20213;-31
2023/08/29 02:24:31;;;;;;;0.35;0.35;;;25.30;61.00;;;25.61;45.97;93795.97;4994947;28;20286;-32
2023/08/29 02:26:58;;;;;;;0.40;0.40;;;25.30;60.90;;;25.60;46.08;93775.59;4995178;28;20201;-30
2023/08/29 02:29:25;;;;;;;0.38;0.38;;;25.30;61.00;;;25.60;45.96;93762.19;4994485;28;20288;-31
2023/08/29 02:31:52;;;;;;;0.30;0.30;;;25.30;61.10;;;25.60;46.18;93759.50;4994560;28;20199;-30
2023/08/29 02:34:20;;;;;;;0.40;0.40;;;25.30;61.00;;;25.60;46.12;93756.81;5009957;28;20260;-32
2023/08/29 02:36:47;;;;;;;0.30;0.30;;;25.30;61.10;;;25.59;45.68;93751.75;4994751;28;20240;-31
2023/08/29 02:39:14;;;;;;;0.30;0.30;;;25.30;61.00;;;25.59;45.80;93754.44;4994353;28;20541;-34
2023/08/29 02:41:41;;;;;;;0.47;0.47;;;25.30;61.00;;;25.58;45.98;93759.00;5078495;28;20319;-32
2023/08/29 02:44:08;;;;;;;0.20;0.20;;;25.30;61.00;;;25.57;45.65;93766.28;4994392;28;20197;-31
2023/08/29 02:46:35;;;;;;;0.30;0.30;;;25.20;61.00;;;25.56;45.92;93771.94;5009754;28;20272;-32
2023/08/29 02:49:02;;;;;;;0.40;0.40;;;25.20;61.00;;;25.55;45.69;93778.44;5009784;28;20203;-34
2023/08/29 02:51:30;;;;;;;0.22;0.22;;;25.30;61.00;;;25.54;45.80;93795.66;4993377;28;20605;-33
2023/08/29 02:53:57;;;;;;;0.30;0.30;;;25.20;61.00;;;25.52;46.04;93795.97;5009638;28;20369;-32
2023/08/29 02:56:24;;;;;;;0.30;0.30;;;25.20;61.00;;;25.50;46.33;93784.75;4993393;28;20215;-30
2023/08/29 02:58:52;;;;;;;0.50;0.50;;;25.20;60.90;;;25.50;45.87;93774.00;5060862;28;20200;-31
2023/08/29 03:01:19;;;;;;;0.50;0.50;;;25.20;61.00;;;25.48;45.73;93770.84;5009671;28;20221;-32
2023/08/29 03:03:47;;;;;;;0.30;0.30;;;25.20;61.00;;;25.47;45.98;93780.00;4994092;28;20378;-31
2023/08/29 03:06:16;;;;;;;0.20;0.20;;;25.20;61.10;;;25.48;45.97;93788.84;5009461;28;20644;-32
2023/08/29 03:08:43;;;;;;;0.40;0.40;;;25.20;61.00;;;25.48;45.73;93784.28;4992915;28;20229;-30
2023/08/29 03:11:11;;;;;;;0.32;0.32;;;25.10;61.00;;;25.47;45.82;93782.69;5009317;28;20299;-31
2023/08/29 03:13:39;;;;;;;0.30;0.30;;;25.20;61.00;;;25.47;45.75;93782.69;5009345;28;20275;-30
2023/08/29 03:16:14;;;;;;;0.30;0.30;;;25.20;61.10;;;25.47;46.17;93781.91;4993360;28;20290;-32
2023/08/29 03:18:46;;;;;;;0.50;0.50;;;25.20;61.10;;;25.46;46.08;93786.47;5009114;28;20213;-29
2023/08/29 03:21:13;;;;;;;0.60;0.60;;;25.10;61.00;;;25.45;45.78;93776.84;4994100;28;20192;-31
2023/08/29 03:23:40;;;;;;;0.30;0.30;;;25.20;61.10;;;25.46;45.53;93774.94;5077422;28;20279;-33
2023/08/29 03:26:09;;;;;;;0.40;0.40;;;25.10;61.10;;;25.45;46.26;93773.38;5077769;28;20206;-32
2023/08/29 03:28:37;;;;;;;0.45;0.45;;;25.10;61.10;;;25.45;46.09;93768.81;5008618;28;20315;-32
2023/08/29 03:31:13;;;;;;;0.50;0.50;;;25.10;61.10;;;25.45;46.03;93751.91;4993930;28;20226;-32
2023/08/29 03:33:42;;;;;;;0.35;0.35;;;25.10;61.10;;;25.46;45.71;93753.47;5009015;28;20204;-31
2023/08/29 03:36:10;;;;;;;0.40;0.40;;;25.10;61.00;;;25.45;46.21;93755.38;4993624;28;20683;-31
2023/08/29 03:38:39;;;;;;;0.30;0.30;;;25.10;61.10;;;25.45;46.11;93749.22;4993691;28;20188;-30
2023/08/29 03:41:07;;;;;;;0.30;0.30;;;25.10;61.10;;;25.44;46.25;93743.06;4992664;28;20643;-32
2023/08/29 03:43:36;;;;;;;0.30;0.30;;;25.10;62.00;;;25.45;46.31;93727.72;5008876;28;20227;-30
2023/08/29 03:46:06;;;;;;;0.30;0.30;;;25.10;61.20;;;25.45;46.01;93731.22;5077241;28;20291;-30
2023/08/29 03:48:36;;;;;;;0.30;0.30;;;25.10;61.10;;;25.45;46.24;93739.28;4992380;28;20276;-30
2023/08/29 03:51:08;;;;;;;0.30;0.30;;;25.10;61.20;;;25.44;45.94;93745.75;5008806;28;20196;-32
2023/08/29 03:53:38;;;;;;;0.35;0.35;;;25.10;61.10;;;25.45;46.23;93746.53;4993681;28;20271;-33
2023/08/29 03:56:09;;;;;;;0.40;0.40;;;25.10;61.00;;;25.43;45.78;93741.47;5009011;28;20204;-31
2023/08/29 03:58:37;;;;;;;0.60;0.60;;;25.10;61.00;;;25.42;45.95;93750.63;5008440;28;20201;-31
2023/08/29 04:01:04;;;;;;;0.50;0.50;;;25.20;61.10;;;25.42;45.95;93756.00;5008620;28;20197;-30
2023/08/29 04:03:32;;;;;;;0.30;0.30;;;25.10;61.00;;;25.41;45.98;93743.69;5008491;28;20248;-30
2023/08/29 04:06:00;;;;;;;0.45;0.45;;;25.10;61.00;;;25.40;45.70;93752.81;5008544;28;20208;-31
2023/08/29 04:08:28;;;;;;;0.30;0.30;;;25.10;61.00;;;25.39;46.00;93754.72;4993055;28;20201;-33
2023/08/29 04:10:56;;;;;;;0.40;0.40;;;25.10;61.10;;;25.39;46.01;93762.78;4993384;28;20210;-33
2023/08/29 04:13:24;;;;;;;0.50;0.50;;;25.10;61.10;;;25.39;46.14;93762.00;4993020;28;20212;-31
2023/08/29 04:15:51;;;;;;;0.30;0.30;;;25.10;61.10;;;25.39;45.97;93760.09;4993356;28;20249;-30
2023/08/29 04:18:19;;;;;;;0.40;0.40;;;25.10;61.10;;;25.39;46.10;93765.47;4993348;28;20193;-32
2023/08/29 04:20:46;;;;;;;0.40;0.40;;;25.10;61.10;;;25.38;45.62;93757.75;4992824;28;20201;-34
2023/08/29 04:23:13;;;;;;;0.30;0.30;;;25.10;61.10;;;25.38;46.10;93755.06;4993163;28;20312;-30
2023/08/29 04:25:40;;;;;;;0.30;0.30;;;25.10;61.10;;;25.37;46.19;93759.63;4992930;28;20192;-30
2023/08/29 04:28:07;;;;;;;0.40;0.40;;;25.10;61.10;;;25.38;46.15;93766.56;4992855;28;20204;-30
2023/08/29 04:30:35;;;;;;;0.60;0.60;;;25.10;61.10;;;25.38;45.83;93769.25;4992777;28;20199;-30
2023/08/29 04:33:03;;;;;;;0.35;0.35;;;25.10;61.10;;;25.37;46.10;93772.22;4993046;28;20213;-33
2023/08/29 04:35:30;;;;;;;0.30;0.30;;;25.10;61.00;;;25.37;46.06;93765.00;4992875;28;20637;-30
2023/08/29 04:37:57;;;;;;;0.30;0.30;;;25.10;61.00;;;25.37;46.04;93778.41;4992182;28;20240;-30
2023/08/29 04:40:25;;;;;;;0.35;0.35;;;25.10;61.00;;;25.36;46.11;93773.31;4991716;28;20591;-32
2023/08/29 04:42:53;;;;;;;0.30;0.30;;;25.10;61.00;;;25.35;45.94;93769.88;4991695;28;20675;-33
2023/08/29 04:45:20;;;;;;;0.60;0.60;;;25.10;61.00;;;25.35;46.31;93787.84;5008045;28;20212;-33
2023/08/29 04:47:47;;;;;;;0.30;0.30;;;25.10;60.90;;;25.33;45.88;93788.16;5059213;28;20625;-32
2023/08/29 04:50:15;;;;;;;0.40;0.40;;;25.10;60.90;;;25.34;45.69;93794.31;5007794;28;20201;-32
2023/08/29 04:52:42;;;;;;;0.30;0.30;;;25.00;61.00;;;25.30;46.33;93796.84;5008432;28;20305;-30
2023/08/29 04:55:10;;;;;;;0.30;0.30;;;25.00;61.00;;;25.32;45.59;93808.06;5007954;28;20209;-32
2023/08/29 04:57:37;;;;;;;0.30;0.30;;;25.00;60.90;;;25.30;45.80;93807.56;5007893;28;20221;-31
2023/08/29 05:00:09;;;;;;;0.30;0.30;;;25.00;61.00;;;25.30;45.91;93807.56;5008082;28;20210;-33
2023/08/29 05:02:36;;;;;;;0.52;0.52;;;25.00;61.00;;;25.29;45.75;93805.19;4991525;28;20224;-32
2023/08/29 05:05:04;;;;;;;0.38;0.38;;;25.00;60.90;;;25.27;46.06;93800.16;4991511;28;20209;-32
2023/08/29 05:07:34;;;;;;;0.60;0.60;;;25.00;60.90;;;25.27;45.74;93794.78;5058394;28;20210;-33
2023/08/29 05:10:01;;;;;;;0.30;0.30;;;25.00;60.90;;;25.26;45.87;93785.94;5007581;28;20648;-32
2023/08/29 05:12:29;;;;;;;0.50;0.50;;;25.00;60.90;;;25.26;45.96;93783.25;5059339;28;20203;-30
2023/08/29 05:14:56;;;;;;;0.40;0.40;;;25.00;61.00;;;25.24;45.73;93790.84;4992294;28;20206;-29
2023/08/29 05:17:23;;;;;;;0.43;0.43;;;24.90;60.90;;;25.25;45.91;93792.44;4991184;28;20584;-30
2023/08/29 05:19:51;;;;;;;0.35;0.35;;;24.90;61.00;;;25.25;45.70;93780.88;5007439;28;20219;-33
2023/08/29 05:22:18;;;;;;;0.30;0.30;;;24.90;61.00;;;25.25;45.72;93775.50;5007521;28;20249;-30
2023/08/29 05:24:45;;;;;;;0.22;0.22;;;25.00;61.00;;;25.25;46.03;93786.25;5007573;28;20214;-32
2023/08/29 05:27:12;;;;;;;0.30;0.30;;;24.90;61.10;;;25.26;45.84;93795.88;4992181;28;20271;-30
2023/08/29 05:29:40;;;;;;;0.60;0.60;;;25.00;61.10;;;25.25;46.21;93799.66;4991985;28;20700;-33
2023/08/29 05:32:08;;;;;;;0.40;0.40;;;24.90;61.00;;;25.24;46.07;93798.88;4992090;28;20709;-31
2023/08/29 05:34:35;;;;;;;0.30;0.30;;;24.90;61.00;;;25.24;46.03;93804.25;4992370;28;20659;-32
2023/08/29 05:37:03;;;;;;;0.50;0.50;;;25.00;61.00;;;25.24;46.03;93808.81;4992055;28;20263;-34
2023/08/29 05:39:31;;;;;;;0.30;0.30;;;24.90;61.00;;;25.21;45.69;93812.91;4991858;28;20215;-31
2023/08/29 05:41:58;;;;;;;0.25;0.25;;;24.90;60.90;;;25.22;45.88;93814.50;4991973;28;20197;-32
2023/08/29 05:44:25;;;;;;;0.40;0.40;;;24.90;61.00;;;25.23;46.06;93812.59;4992239;28;20303;-30
2023/08/29 05:46:52;;;;;;;0.40;0.40;;;24.90;61.00;;;25.22;45.96;93808.34;4992212;28;20205;-32
2023/08/29 05:49:19;;;;;;;0.30;0.30;;;24.90;61.90;;;25.21;45.78;93826.34;4991730;28;20708;-33
2023/08/29 05:51:46;;;;;;;0.40;0.40;;;24.90;60.90;;;25.21;46.03;93815.59;4995059;28;20242;-31
2023/08/29 05:54:15;;;;;;;0.40;0.40;;;24.90;61.00;;;25.20;45.70;93800.59;4995441;28;20289;-31
2023/08/29 05:56:42;;;;;;;0.50;0.50;;;24.90;61.00;;;25.21;46.13;93804.88;4995701;28;20195;-32
2023/08/29 05:59:10;;;;;;;0.30;0.30;;;24.90;60.90;;;25.21;45.62;93796.81;5010260;28;20514;-33
2023/08/29 06:01:37;;;;;;;0.30;0.30;;;24.90;61.00;;;25.20;45.67;93791.78;5079420;28;20662;-30
2023/08/29 06:04:05;;;;;;;0.47;0.47;;;24.90;61.00;;;25.21;46.05;93796.03;4995488;28;20227;-31
2023/08/29 06:06:32;;;;;;;0.30;0.30;;;24.90;61.10;;;25.21;46.07;93793.34;4994994;28;20247;-35
2023/08/29 06:08:59;;;;;;;0.40;0.40;;;24.90;62.00;;;25.20;45.80;93794.44;4994945;28;20200;-32
2023/08/29 06:11:29;;;;;;;0.40;0.40;;;24.90;60.90;;;25.19;45.91;93809.75;4994775;28;20192;-31
2023/08/29 06:13:56;;;;;;;0.40;0.40;;;24.90;60.90;;;25.21;45.94;93822.88;4994843;28;20254;-31
2023/08/29 06:16:23;;;;;;;0.30;0.30;;;24.90;60.90;;;25.20;45.96;93829.34;4994788;28;20281;-30
2023/08/29 06:18:51;;;;;;;0.40;0.40;;;24.90;60.90;;;25.20;45.66;93823.97;5078533;28;20659;-31
2023/08/29 06:21:19;;;;;;;0.30;0.30;;;24.90;61.00;;;25.19;46.09;93814.34;4994733;28;20208;-32
2023/08/29 06:23:46;;;;;;;0.30;0.30;;;24.90;61.00;;;25.19;46.14;93809.75;4994632;28;20227;-32
2023/08/29 06:26:15;;;;;;;0.40;0.40;;;24.90;61.00;;;25.20;46.12;93803.28;4994733;28;20193;-29
2023/08/29 06:28:42;;;;;;;0.32;0.32;;;24.90;61.10;;;25.20;45.79;93800.59;4995180;28;20203;-31
2023/08/29 06:31:10;;;;;;;0.60;0.60;;;24.90;61.10;;;25.22;46.05;93789.56;4994532;28;20278;-29
2023/08/29 06:33:38;;;;;;;0.50;0.50;;;24.90;61.00;;;25.22;45.86;93782.31;4994849;28;20212;-33
2023/08/29 06:36:06;;;;;;;0.40;0.40;;;24.90;61.10;;;25.22;46.06;93784.22;4994578;28;20224;-31
2023/08/29 06:38:34;;;;;;;0.30;0.30;;;24.90;61.00;;;25.23;45.68;93788.44;4994530;28;20197;-31
2023/08/29 06:41:03;;;;;;;0.38;0.38;;;24.90;61.10;;;25.23;45.94;93788.44;4994402;28;20261;-33
2023/08/29 06:43:30;;;;;;;0.30;0.30;;;24.90;61.10;;;25.23;46.01;93800.00;4993533;28;20220;-33
2023/08/29 06:45:57;;;;;;;0.25;0.25;;;24.90;61.10;;;25.23;46.27;93816.09;5078453;28;20273;-30
2023/08/29 06:48:25;;;;;;;0.40;0.40;;;25.00;61.30;;;25.25;46.20;93823.81;4994585;28;20223;-31
2023/08/29 06:50:52;;;;;;;0.43;0.43;;;25.00;61.10;;;25.25;45.76;93821.94;4994436;28;20578;-33
2023/08/29 06:53:19;;;;;;;0.30;0.30;;;25.00;61.00;;;25.25;45.80;93832.69;4994280;28;20670;-30
2023/08/29 06:55:47;;;;;;;0.38;0.38;;;25.00;61.10;;;25.26;45.72;93836.16;5078119;28;20196;-32
2023/08/29 06:58:14;;;;;;;0.40;0.40;;;25.00;61.00;;;25.25;46.03;93851.47;4994741;28;20688;-31
2023/08/29 07:00:41;;;;;;;0.30;0.30;;;25.00;61.00;;;25.25;46.03;93850.66;4994149;28;20223;-30
2023/08/29 07:03:09;;;;;;;0.20;0.20;;;25.00;61.00;;;25.26;45.89;93858.38;4993436;28;20230;-33
2023/08/29 07:05:36;;;;;;;0.30;0.30;;;25.00;61.10;;;25.26;45.85;93866.44;4994108;28;20198;-32
2023/08/29 07:08:04;;;;;;;0.38;0.38;;;25.00;61.00;;;25.26;46.20;93879.09;4994008;28;20212;-31
2023/08/29 07:10:32;;;;;;;0.30;0.30;;;25.00;61.10;;;25.28;46.07;93876.88;4993924;28;20534;-32
2023/08/29 07:12:59;;;;;;;0.40;0.40;;;25.00;61.10;;;25.28;45.71;93889.50;4994191;28;20212;-30
2023/08/29 07:15:26;;;;;;;0.30;0.30;;;25.00;61.00;;;25.25;46.12;93897.09;4994487;28;20291;-32
2023/08/29 07:17:53;;;;;;;0.30;0.30;;;25.00;61.00;;;25.25;45.81;93896.28;4993785;28;20253;-32
2023/08/29 07:20:21;;;;;;;0.40;0.40;;;25.00;61.00;;;25.24;45.79;93897.38;4993968;28;20541;-32
2023/08/29 07:22:48;;;;;;;0.30;0.30;;;25.00;61.80;;;25.23;45.53;93893.91;5077801;28;20265;-30
2023/08/29 07:25:19;;;;;;;0.22;0.22;;;25.00;61.00;;;25.23;45.84;93893.09;4993794;28;20549;-30
2023/08/29 07:27:47;;;;;;;0.38;0.38;;;25.00;61.00;;;25.23;45.96;93898.47;4993820;28;20180;-30
2023/08/29 07:30:15;;;;;;;0.43;0.43;;;25.00;60.90;;;25.22;45.98;93895.00;5077629;28;20495;-31
2023/08/29 07:32:44;;;;;;;0.30;0.30;;;24.90;60.90;;;25.22;46.00;93889.66;4993869;28;20197;-30
2023/08/29 07:35:11;;;;;;;0.40;0.40;;;24.90;61.00;;;25.22;45.76;93884.28;4992729;28;20205;-30
2023/08/29 07:37:38;;;;;;;0.35;0.35;;;24.90;61.00;;;25.23;46.02;93879.69;4993719;28;20226;-31
2023/08/29 07:40:08;;;;;;;0.40;0.40;;;24.90;60.90;;;25.23;45.78;93877.00;4993762;28;20587;-30
2023/08/29 07:42:36;;;;;;;0.30;0.30;;;24.90;60.90;;;25.23;45.78;93877.00;4993927;28;20185;-31
2023/08/29 07:45:03;;;;;;;0.30;0.30;;;25.00;61.10;;;25.22;45.57;93875.44;4993836;28;20609;-31
2023/08/29 07:47:31;;;;;;;0.30;0.30;;;24.90;60.80;;;25.21;45.75;93885.38;4993738;28;20208;-31
2023/08/29 07:49:58;;;;;;;0.30;0.30;;;24.90;60.90;;;25.20;45.78;93888.38;4993741;28;20567;-32
2023/08/29 07:52:26;;;;;;;0.40;0.40;;;24.90;60.80;;;25.20;45.79;93896.44;4993371;28;20274;-30
2023/08/29 07:54:53;;;;;;;0.30;0.30;;;24.90;60.90;;;25.18;45.70;93894.06;4993978;28;20197;-32
2023/08/29 07:57:20;;;;;;;0.30;0.30;;;24.90;60.90;;;25.19;45.97;93903.66;4993369;28;20193;-29
2023/08/29 07:59:48;;;;;;;0.50;0.50;;;24.90;60.90;;;25.19;45.96;93894.84;5059838;28;20219;-32
2023/08/29 08:02:15;;;;;;;0.40;0.40;;;24.90;61.00;;;25.19;45.59;93909.03;4993421;28;20206;-34
2023/08/29 08:04:42;;;;;;;0.40;0.40;;;24.90;60.90;;;25.19;45.86;93916.31;4993528;28;20274;-30
2023/08/29 08:07:09;;;;;;;0.50;0.50;;;24.90;61.00;;;25.19;45.53;93925.13;4993258;28;20201;-29
2023/08/29 08:09:36;;;;;;;0.30;0.30;;;24.90;60.90;;;25.19;45.96;93930.50;5076946;28;20607;-29
2023/08/29 08:12:04;;;;;;;0.30;0.30;;;24.90;61.00;;;25.18;45.59;93922.75;4992997;28;20195;-33
2023/08/29 08:14:31;;;;;;;0.50;0.50;;;24.90;61.00;;;25.17;45.96;93915.81;4992286;28;20311;-32
2023/08/29 08:16:58;;;;;;;0.30;0.30;;;24.90;60.90;;;25.17;45.37;93919.31;5008332;28;20316;-31
2023/08/29 08:19:26;;;;;;;0.30;0.30;;;24.90;60.80;;;25.14;45.55;93911.84;4993361;28;20272;-30
2023/08/29 08:21:53;;;;;;;0.40;0.40;;;24.90;60.70;;;25.14;45.57;93924.50;4993083;28;20227;-30
2023/08/29 08:24:20;;;;;;;0.30;0.30;;;24.90;60.70;;;25.12;45.74;93927.50;5008290;28;20255;-29
2023/08/29 08:26:48;;;;;;;0.30;0.30;;;24.90;60.90;;;25.12;45.48;93927.50;5076390;28;20259;-30
2023/08/29 08:29:16;;;;;;;0.30;0.30;;;24.80;60.80;;;25.10;45.37;93937.72;4993421;28;20187;-29
2023/08/29 08:31:43;;;;;;;0.30;0.30;;;24.80;60.70;;;25.10;45.63;93932.38;4991726;28;20536;-31
2023/08/29 08:34:11;;;;;;;0.30;0.30;;;24.80;60.70;;;25.09;45.38;93939.59;4992788;28;20200;-28
2023/08/29 08:36:39;;;;;;;0.47;0.47;;;24.80;60.80;;;25.09;45.65;93934.25;4992061;28;20213;-30
2023/08/29 08:39:06;;;;;;;0.30;0.30;;;24.80;60.90;;;25.09;45.63;93931.56;4992774;28;20262;-30
2023/08/29 08:41:34;;;;;;;0.40;0.40;;;24.80;61.00;;;25.10;45.39;93929.69;4992940;28;20288;-29
2023/08/29 08:44:08;;;;;;;0.30;0.30;;;24.80;60.90;;;25.10;45.80;93929.69;4992510;28;20241;-29
2023/08/29 08:46:38;;;;;;;0.40;0.40;;;24.80;61.00;;;25.11;45.71;93939.31;4992817;28;20607;-30
2023/08/29 08:49:07;;;;;;;0.60;0.60;;;24.80;61.90;;;25.07;45.52;93939.16;4992446;28;20188;-32
2023/08/29 08:51:37;;;;;;;0.40;0.40;;;24.80;61.00;;;25.06;45.34;93937.56;4991755;28;20694;-30
2023/08/29 08:54:09;;;;;;;0.32;0.32;;;24.80;60.80;;;25.06;45.45;93934.06;5076365;28;20635;-32
2023/08/29 08:56:38;;;;;;;0.40;0.40;;;24.80;60.80;;;25.06;45.77;93944.78;4993016;28;20583;-32
2023/08/29 08:59:06;;;;;;;0.50;0.50;;;24.80;60.70;;;25.03;45.40;93940.84;4992789;28;20214;-28
2023/08/29 09:01:33;;;;;;;0.40;0.40;;;24.80;60.70;;;25.03;45.47;93943.53;4992775;28;20673;-29
2023/08/29 09:04:01;;;;;;;0.40;0.40;;;24.70;60.70;;;25.01;45.66;93948.44;5076164;28;20227;-30
2023/08/29 09:06:29;;;;;;;0.30;0.30;;;24.70;60.70;;;25.02;45.86;93941.16;4992529;28;20199;-32
2023/08/29 09:08:57;;;;;;;0.30;0.30;;;24.70;60.90;;;25.02;45.65;93946.53;4992497;28;20662;-30
2023/08/29 09:11:24;;;;;;;0.50;0.50;;;24.70;60.90;;;25.03;45.30;93953.47;4991537;28;20207;-29
2023/08/29 09:13:52;;;;;;;0.40;0.40;;;24.70;60.90;;;25.03;45.81;93962.31;5076070;28;20199;-31
2023/08/29 09:16:21;;;;;;;0.50;0.50;;;24.70;60.90;;;25.04;45.91;93949.69;4992262;28;20418;-29
2023/08/29 09:18:51;;;;;;;0.38;0.38;;;24.70;61.00;;;25.03;45.55;93946.22;5074414;28;20200;-30
2023/08/29 09:21:22;;;;;;;0.50;0.50;;;24.70;60.90;;;25.03;45.64;93942.75;5075857;28;20209;-34
2023/08/29 09:23:50;;;;;;;0.38;0.38;;;24.70;60.90;;;25.04;45.47;93945.09;4991442;28;20234;-30
2023/08/29 09:26:18;;;;;;;0.60;0.60;;;24.70;61.00;;;25.03;45.54;93943.53;5009928;28;20202;-29
2023/08/29 09:28:48;;;;;;;0.32;0.32;;;24.80;61.00;;;25.02;45.80;93941.94;5079096;28;20206;-30
2023/08/29 09:31:16;;;;;;;0.40;0.40;;;24.70;60.90;;;25.02;45.74;93949.19;4995797;28;20218;-30
2023/08/29 09:33:43;;;;;;;0.43;0.43;;;24.70;60.80;;;25.00;45.71;93954.06;4996038;28;20282;-32
2023/08/29 09:36:10;;;;;;;0.40;0.40;;;24.70;60.80;;;24.98;45.40;93953.59;4995448;28;20255;-30
2023/08/29 09:38:40;;;;;;;0.30;0.30;;;24.70;60.60;;;24.95;45.65;93944.28;4995234;28;20229;-29
2023/08/29 09:41:14;;;;;;;0.40;0.40;;;24.70;60.80;;;24.96;45.88;93950.44;5010889;28;20200;-30
2023/08/29 09:43:49;;;;;;;0.40;0.40;;;24.70;60.80;;;24.94;45.65;93940.00;5079972;28;20585;-30
2023/08/29 09:46:29;;;;;;;0.40;0.40;;;24.70;60.90;;;24.93;45.46;93941.09;4994477;28;20206;-30
2023/08/29 09:48:57;;;;;;;0.40;0.40;;;24.60;60.90;;;24.94;45.93;93951.53;5060132;28;20194;-31
2023/08/29 09:51:26;;;;;;;0.50;0.50;;;24.60;60.90;;;24.95;45.61;93968.44;4994306;28;20596;-30
2023/08/29 09:53:57;;;;;;;0.30;0.30;;;24.60;60.80;;;24.93;45.57;93965.25;4995190;28;20203;-30
2023/08/29 09:56:25;;;;;;;0.40;0.40;;;24.60;60.80;;;24.91;45.63;93978.97;4994279;28;20204;-29
2023/08/29 09:58:57;;;;;;;0.55;0.55;;;24.70;61.70;;;24.90;45.75;93977.38;5079106;28;20200;-29
2023/08/29 10:01:25;;;;;;;0.38;0.38;;;24.60;60.60;;;24.88;45.49;93981.47;4994642;28;20204;-30
2023/08/29 10:03:52;;;;;;;0.30;0.30;;;24.60;60.60;;;24.86;45.50;93965.66;4994413;28;20279;-29
2023/08/29 10:06:20;;;;;;;0.40;0.40;;;24.60;60.70;;;24.86;45.44;93959.53;4995031;28;20196;-30
2023/08/29 10:09:00;;;;;;;0.40;0.40;;;24.60;60.90;;;24.85;45.22;93957.94;4994780;28;20717;-29
2023/08/29 10:11:27;;;;;;;0.60;0.60;;;24.60;60.90;;;24.87;45.99;93953.06;5079093;28;20183;-30
2023/08/29 10:14:05;;;;;;;0.30;0.30;;;24.50;60.80;;;24.88;45.98;93931.28;4979096;28;20195;-30
2023/08/29 10:16:34;;;;;;;0.32;0.32;;;24.60;61.00;;;24.91;46.00;93933.38;4994070;28;20543;-29
2023/08/29 10:19:01;;;;;;;0.40;0.40;;;24.60;61.10;;;24.92;45.99;93937.63;4994789;28;20284;-29
2023/08/29 10:21:29;;;;;;;0.40;0.40;;;24.60;61.00;;;24.94;45.96;93951.53;5079154;28;20195;-29
2023/08/29 10:23:58;;;;;;;0.47;0.47;;;24.60;61.10;;;24.96;45.70;93958.47;4994955;28;20218;-30
2023/08/29 10:26:27;;;;;;;0.30;0.30;;;24.60;61.00;;;24.97;45.50;93952.03;4994735;28;20204;-29